createdAt,value
2018-12-15T00:00:33.561Z,86.53
2018-12-15T00:03:03.038Z,86.38
2018-12-15T00:05:32.362Z,85.94
2018-12-15T00:08:01.597Z,86.56
2018-12-15T00:10:30.868Z,86.08
2018-12-15T00:13:00.133Z,85.98
2018-12-15T00:15:29.671Z,86.56
2018-12-15T00:17:59.134Z,86.04
2018-12-15T00:20:28.402Z,86.43
2018-12-15T00:22:57.926Z,86.03
2018-12-15T00:25:27.120Z,86.56
2018-12-15T00:27:56.383Z,85.99
2018-12-15T00:30:25.671Z,86.36
2018-12-15T00:32:55.749Z,86.14
2018-12-15T00:35:24.956Z,86.37
2018-12-15T00:37:54.674Z,86.64
2018-12-15T00:40:23.892Z,86.08
2018-12-15T00:42:53.174Z,86.09
2018-12-15T00:45:22.371Z,86.58
2018-12-15T00:47:51.966Z,86.41
2018-12-15T00:50:21.249Z,86.14
2018-12-15T00:52:50.461Z,86.52
2018-12-15T00:55:19.836Z,86.17
2018-12-15T00:57:49.084Z,86.57
2018-12-15T01:00:18.537Z,86.37
2018-12-15T01:02:47.802Z,86.10
2018-12-15T01:05:17.184Z,86.09
2018-12-15T01:07:46.427Z,86.14
2018-12-15T01:10:15.738Z,86.20
2018-12-15T01:12:45.146Z,86.59
2018-12-15T01:15:16.405Z,86.13
2018-12-15T01:17:45.700Z,86.48
2018-12-15T01:20:14.955Z,86.14
2018-12-15T01:22:44.222Z,86.59
2018-12-15T01:25:13.481Z,86.28
2018-12-15T01:27:43.043Z,86.19
2018-12-15T01:30:12.397Z,86.13
2018-12-15T01:32:41.663Z,86.52
2018-12-15T01:35:10.898Z,86.22
2018-12-15T01:37:40.145Z,86.54
2018-12-15T01:40:09.988Z,86.63
2018-12-15T01:42:39.938Z,86.08
2018-12-15T01:45:09.287Z,85.95
2018-12-15T01:47:38.495Z,86.42
2018-12-15T01:50:07.899Z,86.04
2018-12-15T01:52:37.206Z,86.02
2018-12-15T01:55:06.660Z,86.22
2018-12-15T01:57:35.929Z,86.58
2018-12-15T02:00:06.963Z,86.25
2018-12-15T02:02:36.384Z,86.10
2018-12-15T02:05:05.971Z,86.39
2018-12-15T02:07:35.229Z,86.67
2018-12-15T02:10:05.280Z,86.44
2018-12-15T02:12:35.364Z,86.65
2018-12-15T02:15:06.641Z,86.18
2018-12-15T02:17:35.971Z,86.40
2018-12-15T02:20:06.267Z,86.18
2018-12-15T02:22:35.463Z,86.17
2018-12-15T02:25:05.728Z,86.25
2018-12-15T02:27:35.054Z,86.54
2018-12-15T02:30:05.264Z,86.65
2018-12-15T02:32:34.524Z,86.46
2018-12-15T02:35:04.973Z,86.40
2018-12-15T02:37:36.310Z,86.46
2018-12-15T02:40:07.100Z,86.31
2018-12-15T02:42:36.316Z,86.75
2018-12-15T02:45:05.700Z,86.81
2018-12-15T02:47:41.135Z,86.65
2018-12-15T02:50:06.378Z,86.55
2018-12-15T02:52:35.912Z,86.48
2018-12-15T02:55:05.356Z,86.79
2018-12-15T02:57:34.582Z,86.58
2018-12-15T03:00:04.282Z,86.41
2018-12-15T03:02:33.510Z,86.56
2018-12-15T03:05:03.940Z,86.77
2018-12-15T03:07:33.167Z,86.61
2018-12-15T03:10:02.423Z,86.35
2018-12-15T03:12:31.971Z,86.69
2018-12-15T03:15:01.193Z,86.61
2018-12-15T03:17:30.445Z,86.46
2018-12-15T03:20:02.095Z,86.33
2018-12-15T03:22:31.492Z,86.49
2018-12-15T03:25:00.767Z,86.26
2018-12-15T03:27:30.021Z,86.31
2018-12-15T03:30:00.513Z,86.24
2018-12-15T03:32:29.773Z,86.77
2018-12-15T03:34:59.967Z,86.43
2018-12-15T03:37:29.278Z,86.81
2018-12-15T03:39:58.527Z,86.13
2018-12-15T03:42:28.246Z,86.16
2018-12-15T03:44:57.506Z,86.35
2018-12-15T03:47:26.998Z,86.74
2018-12-15T03:49:56.273Z,86.51
2018-12-15T03:52:25.478Z,86.04
2018-12-15T03:54:54.709Z,86.05
2018-12-15T03:57:23.921Z,86.05
2018-12-15T03:59:53.638Z,86.66
2018-12-15T04:02:23.008Z,86.10
2018-12-15T04:04:52.683Z,85.91
2018-12-15T04:07:21.972Z,86.58
2018-12-15T04:09:51.474Z,86.40
2018-12-15T04:12:20.793Z,86.42
2018-12-15T04:14:50.216Z,86.56
2018-12-15T04:17:19.589Z,86.48
2018-12-15T04:19:48.829Z,86.31
2018-12-15T04:22:20.106Z,86.19
2018-12-15T04:24:49.733Z,86.38
2018-12-15T04:27:18.960Z,86.04
2018-12-15T04:29:48.529Z,86.47
2018-12-15T04:32:17.778Z,85.96
2018-12-15T04:34:47.102Z,85.81
2018-12-15T04:37:16.374Z,86.25
2018-12-15T04:39:45.674Z,85.82
2018-12-15T04:42:15.528Z,85.90
2018-12-15T04:44:45.140Z,86.51
2018-12-15T04:47:14.673Z,86.42
2018-12-15T04:49:43.915Z,86.40
2018-12-15T04:52:13.320Z,85.93
2018-12-15T04:54:42.549Z,86.40
2018-12-15T04:57:11.796Z,85.74
2018-12-15T04:59:41.069Z,86.51
2018-12-15T05:02:10.254Z,86.30
2018-12-15T05:04:39.832Z,85.71
2018-12-15T05:07:09.060Z,85.92
2018-12-15T05:09:38.278Z,85.89
2018-12-15T05:12:07.636Z,86.36
2018-12-15T05:14:36.865Z,86.57
2018-12-15T05:17:06.822Z,86.34
2018-12-15T05:19:36.313Z,86.12
2018-12-15T05:22:05.749Z,86.00
2018-12-15T05:24:35.023Z,86.54
2018-12-15T05:27:04.940Z,86.65
2018-12-15T05:29:34.156Z,86.38
2018-12-15T05:32:03.667Z,86.68
2018-12-15T05:34:32.889Z,86.54
2018-12-15T05:37:02.144Z,86.37
2018-12-15T05:39:31.661Z,86.59
2018-12-15T05:42:00.896Z,86.72
2018-12-15T05:44:30.129Z,86.72
2018-12-15T05:46:59.385Z,86.28
2018-12-15T05:49:28.641Z,86.35
2018-12-15T05:51:57.855Z,86.41
2018-12-15T05:54:27.223Z,86.69
2018-12-15T05:56:57.704Z,86.66
2018-12-15T05:59:27.002Z,86.62
2018-12-15T06:01:56.620Z,86.71
2018-12-15T06:04:25.887Z,86.73
2018-12-15T06:06:55.152Z,86.37
2018-12-15T06:09:24.485Z,86.82
2018-12-15T06:11:53.791Z,86.70
2018-12-15T06:14:23.107Z,86.20
2018-12-15T06:16:52.433Z,86.52
2018-12-15T06:19:21.698Z,86.88
2018-12-15T06:21:50.957Z,86.92
2018-12-15T06:24:20.249Z,86.48
2018-12-15T06:26:49.505Z,86.27
2018-12-15T06:29:18.771Z,86.91
2018-12-15T06:31:48.183Z,86.42
2018-12-15T06:34:17.434Z,86.46
2018-12-15T06:36:46.679Z,86.35
2018-12-15T06:39:15.886Z,86.43
2018-12-15T06:41:45.092Z,86.40
2018-12-15T06:44:14.425Z,86.59
2018-12-15T06:46:43.878Z,86.65
2018-12-15T06:49:13.097Z,86.43
2018-12-15T06:51:42.528Z,87.00
2018-12-15T06:54:11.876Z,86.85
2018-12-15T06:56:41.121Z,86.86
2018-12-15T06:59:10.390Z,86.77
2018-12-15T07:01:39.699Z,86.71
2018-12-15T07:04:09.330Z,86.85
2018-12-15T07:06:38.578Z,86.58
2018-12-15T07:09:08.401Z,86.86
2018-12-15T07:11:37.657Z,86.55
2018-12-15T07:14:06.923Z,86.44
2018-12-15T07:16:36.247Z,86.75
2018-12-15T07:19:05.530Z,86.85
2018-12-15T07:21:34.752Z,86.55
2018-12-15T07:24:03.979Z,86.52
2018-12-15T07:26:33.240Z,86.96
2018-12-15T07:29:02.649Z,86.97
2018-12-15T07:31:31.923Z,86.99
2018-12-15T07:34:01.237Z,86.60
2018-12-15T07:36:30.511Z,86.58
2018-12-15T07:38:59.780Z,86.98
2018-12-15T07:41:29.078Z,86.79
2018-12-15T07:43:58.919Z,86.80
2018-12-15T07:46:28.249Z,86.74
2018-12-15T07:48:58.024Z,87.01
2018-12-15T07:51:27.254Z,86.59
2018-12-15T07:53:56.571Z,87.03
2018-12-15T07:56:32.504Z,86.79
2018-12-15T07:59:02.352Z,87.00
2018-12-15T08:01:31.564Z,86.55
2018-12-15T08:04:00.792Z,86.76
2018-12-15T08:06:30.071Z,86.52
2018-12-15T08:08:59.455Z,86.92
2018-12-15T08:11:33.808Z,86.85
2018-12-15T08:14:06.045Z,87.04
2018-12-15T08:16:35.416Z,86.83
2018-12-15T08:19:05.916Z,87.03
2018-12-15T08:21:35.391Z,86.90
2018-12-15T08:24:04.798Z,86.94
2018-12-15T08:26:34.080Z,87.06
2018-12-15T08:29:03.349Z,86.64
2018-12-15T08:31:32.686Z,86.90
2018-12-15T08:34:02.030Z,86.87
2018-12-15T08:36:31.330Z,86.80
2018-12-15T08:39:00.649Z,86.69
2018-12-15T08:41:30.002Z,86.77
2018-12-15T08:43:59.210Z,87.23
2018-12-15T08:46:28.982Z,87.10
2018-12-15T08:49:04.489Z,87.15
2018-12-15T08:51:29.678Z,87.10
2018-12-15T08:53:58.918Z,86.78
2018-12-15T08:56:29.250Z,86.65
2018-12-15T08:58:58.576Z,86.75
2018-12-15T09:01:27.836Z,86.94
2018-12-15T09:03:57.224Z,87.05
2018-12-15T09:06:26.532Z,86.73
2018-12-15T09:08:56.940Z,86.71
2018-12-15T09:11:26.194Z,86.78
2018-12-15T09:13:55.406Z,86.85
2018-12-15T09:16:26.639Z,86.73
2018-12-15T09:18:55.971Z,86.74
2018-12-15T09:21:25.239Z,86.80
2018-12-15T09:23:54.497Z,86.95
2018-12-15T09:26:23.827Z,86.99
2018-12-15T09:28:53.095Z,86.82
2018-12-15T09:31:22.328Z,86.77
2018-12-15T09:33:51.714Z,86.79
2018-12-15T09:36:21.029Z,86.75
2018-12-15T09:38:50.259Z,87.11
2018-12-15T09:41:19.771Z,86.76
2018-12-15T09:43:49.803Z,87.15
2018-12-15T09:46:19.061Z,87.21
2018-12-15T09:48:48.557Z,87.20
2018-12-15T09:51:18.117Z,87.21
2018-12-15T09:53:47.363Z,87.22
2018-12-15T09:56:16.830Z,86.81
2018-12-15T09:58:46.646Z,87.23
2018-12-15T10:01:15.993Z,87.05
2018-12-15T10:03:45.252Z,86.96
2018-12-15T10:06:14.492Z,86.92
2018-12-15T10:08:43.934Z,86.99
2018-12-15T10:11:14.238Z,87.26
2018-12-15T10:13:43.444Z,86.97
2018-12-15T10:16:13.717Z,87.04
2018-12-15T10:18:43.798Z,87.00
2018-12-15T10:21:13.061Z,87.20
2018-12-15T10:23:42.424Z,87.30
2018-12-15T10:26:11.656Z,86.89
2018-12-15T10:28:41.054Z,87.26
2018-12-15T10:31:15.819Z,86.99
2018-12-15T10:33:45.222Z,87.15
2018-12-15T10:36:14.499Z,87.34
2018-12-15T10:38:44.226Z,87.21
2018-12-15T10:41:14.195Z,86.92
2018-12-15T10:43:43.989Z,87.12
2018-12-15T10:46:13.377Z,87.33
2018-12-15T10:48:43.038Z,87.21
2018-12-15T10:51:12.495Z,87.01
2018-12-15T10:53:41.798Z,87.05
2018-12-15T10:56:11.570Z,87.35
2018-12-15T10:58:40.852Z,86.97
2018-12-15T11:01:15.368Z,86.94
2018-12-15T11:03:44.664Z,86.97
2018-12-15T11:06:14.056Z,87.24
2018-12-15T11:08:43.325Z,87.31
2018-12-15T11:11:12.642Z,87.24
2018-12-15T11:13:41.915Z,87.04
2018-12-15T11:16:11.237Z,86.94
2018-12-15T11:18:40.513Z,87.19
2018-12-15T11:21:09.792Z,87.06
2018-12-15T11:23:39.017Z,87.38
2018-12-15T11:27:37.701Z,87.26
2018-12-15T11:30:07.325Z,86.99
2018-12-15T11:32:37.304Z,87.04
2018-12-15T11:35:06.969Z,87.40
2018-12-15T11:37:36.292Z,87.18
2018-12-15T11:40:06.186Z,87.39
2018-12-15T11:42:35.691Z,87.12
2018-12-15T11:45:05.300Z,87.15
2018-12-15T11:47:34.530Z,87.42
2018-12-15T11:50:04.096Z,87.42
2018-12-15T11:52:34.497Z,87.31
2018-12-15T11:55:04.075Z,87.07
2018-12-15T11:57:33.675Z,87.27
2018-12-15T12:00:03.327Z,87.04
2018-12-15T12:02:32.940Z,87.04
2018-12-15T12:05:02.152Z,87.38
2018-12-15T12:07:31.412Z,87.26
2018-12-15T12:10:00.745Z,87.22
2018-12-15T12:12:30.023Z,87.37
2018-12-15T12:14:59.430Z,87.01
2018-12-15T12:17:28.636Z,87.06
2018-12-15T12:19:57.934Z,87.04
2018-12-15T12:22:27.253Z,87.45
2018-12-15T12:24:56.533Z,87.09
2018-12-15T12:27:25.792Z,87.17
2018-12-15T12:29:55.018Z,87.03
2018-12-15T12:32:24.412Z,87.30
2018-12-15T12:34:53.661Z,87.07
2018-12-15T12:37:22.926Z,87.38
2018-12-15T12:39:54.659Z,87.03
2018-12-15T12:42:25.145Z,87.51
2018-12-15T12:44:55.953Z,87.02
2018-12-15T12:47:25.272Z,87.32
2018-12-15T12:49:57.022Z,87.20
2018-12-15T12:52:26.492Z,87.13
2018-12-15T12:54:56.988Z,87.04
2018-12-15T12:57:26.331Z,87.46
2018-12-15T13:00:02.848Z,87.40
2018-12-15T13:02:32.319Z,87.49
2018-12-15T13:05:02.966Z,87.11
2018-12-15T13:07:32.461Z,87.01
2018-12-15T13:10:03.103Z,87.11
2018-12-15T13:12:33.279Z,87.30
2018-12-15T13:15:02.790Z,87.07
2018-12-15T13:17:32.242Z,87.44
2018-12-15T13:20:03.857Z,87.11
2018-12-15T13:22:33.175Z,87.45
2018-12-15T13:25:02.664Z,87.25
2018-12-15T13:27:32.795Z,87.36
2018-12-15T13:30:02.945Z,87.26
2018-12-15T13:32:34.802Z,87.59
2018-12-15T13:35:04.430Z,87.03
2018-12-15T13:37:35.182Z,87.50
2018-12-15T13:40:05.051Z,87.42
2018-12-15T13:42:34.485Z,87.02
2018-12-15T13:45:04.882Z,87.15
2018-12-15T13:47:34.174Z,87.39
2018-12-15T13:50:09.967Z,87.23
2018-12-15T13:52:35.235Z,87.06
2018-12-15T13:55:07.326Z,87.27
2018-12-15T13:57:40.794Z,87.42
2018-12-15T14:00:10.168Z,87.13
2018-12-15T14:02:40.292Z,87.06
2018-12-15T14:05:09.534Z,87.41
2018-12-15T14:07:38.790Z,87.05
2018-12-15T14:10:08.289Z,86.97
2018-12-15T14:12:37.671Z,87.05
2018-12-15T14:15:07.248Z,87.42
2018-12-15T14:17:36.778Z,87.40
2018-12-15T14:20:06.259Z,87.36
2018-12-15T14:22:35.499Z,87.50
2018-12-15T14:25:04.837Z,87.46
2018-12-15T14:27:34.188Z,87.05
2018-12-15T14:30:03.541Z,87.34
2018-12-15T14:32:32.756Z,87.08
2018-12-15T14:35:02.199Z,87.07
2018-12-15T14:37:31.558Z,87.18
2018-12-15T14:40:00.862Z,87.27
2018-12-15T14:42:30.111Z,87.38
2018-12-15T14:44:59.443Z,87.43
2018-12-15T14:47:28.696Z,87.10
2018-12-15T14:49:58.222Z,87.39
2018-12-15T14:52:27.436Z,87.33
2018-12-15T14:54:56.868Z,87.11
2018-12-15T14:57:26.387Z,87.01
2018-12-15T14:59:55.688Z,87.42
2018-12-15T15:02:24.997Z,87.45
2018-12-15T15:04:54.222Z,87.44
2018-12-15T15:07:23.821Z,86.99
2018-12-15T15:09:53.444Z,87.44
2018-12-15T15:12:23.549Z,87.33
2018-12-15T15:14:53.346Z,87.06
2018-12-15T15:17:23.597Z,86.90
2018-12-15T15:19:53.329Z,87.15
2018-12-15T15:22:22.973Z,87.48
2018-12-15T15:24:52.772Z,87.48
2018-12-15T15:27:22.267Z,87.40
2018-12-15T15:29:51.536Z,87.33
2018-12-15T15:32:20.791Z,87.48
2018-12-15T15:34:50.098Z,87.45
2018-12-15T15:37:19.448Z,87.15
2018-12-15T15:39:48.727Z,87.36
2018-12-15T15:42:18.695Z,87.09
2018-12-15T15:44:48.125Z,87.08
2018-12-15T15:47:18.167Z,87.42
2018-12-15T15:49:47.581Z,87.17
2018-12-15T15:52:16.975Z,87.11
2018-12-15T15:54:46.287Z,87.30
2018-12-15T15:57:16.382Z,87.19
2018-12-15T15:59:45.609Z,87.13
2018-12-15T16:02:15.427Z,87.48
2018-12-15T16:04:44.759Z,87.28
2018-12-15T16:07:14.597Z,87.26
2018-12-15T16:09:45.026Z,87.31
2018-12-15T16:12:14.709Z,87.44
2018-12-15T16:14:43.967Z,87.04
2018-12-15T16:17:13.453Z,87.49
2018-12-15T16:19:42.830Z,87.19
2018-12-15T16:22:12.211Z,87.19
2018-12-15T16:24:41.478Z,87.16
2018-12-15T16:27:10.867Z,87.26
2018-12-15T16:29:40.221Z,87.21
2018-12-15T16:32:09.524Z,87.37
2018-12-15T16:34:38.791Z,87.36
2018-12-15T16:37:08.126Z,87.06
2018-12-15T16:39:37.503Z,87.11
2018-12-15T16:42:06.768Z,87.03
2018-12-15T16:44:36.138Z,87.48
2018-12-15T16:47:05.655Z,87.27
2018-12-15T16:49:35.047Z,87.52
2018-12-15T16:52:05.066Z,87.06
2018-12-15T16:54:34.500Z,87.22
2018-12-15T16:57:04.342Z,87.12
2018-12-15T16:59:34.524Z,87.25
2018-12-15T17:02:03.786Z,87.45
2018-12-15T17:04:33.903Z,87.51
2018-12-15T17:07:05.071Z,87.46
2018-12-15T17:09:35.377Z,87.49
2018-12-15T17:12:04.689Z,87.06
2018-12-15T17:14:33.950Z,87.07
2018-12-15T17:17:03.311Z,87.23
2018-12-15T17:19:32.575Z,87.31
2018-12-15T17:22:01.816Z,87.49
2018-12-15T17:24:31.901Z,87.17
2018-12-15T17:27:01.144Z,87.10
2018-12-15T17:29:30.384Z,87.08
2018-12-15T17:31:59.653Z,87.51
2018-12-15T17:34:28.976Z,87.17
2018-12-15T17:36:58.416Z,87.45
2018-12-15T17:39:27.952Z,87.10
2018-12-15T17:41:57.236Z,87.08
2018-12-15T17:44:26.897Z,87.14
2018-12-15T17:46:56.227Z,87.10
2018-12-15T17:49:25.528Z,87.55
2018-12-15T17:51:57.134Z,87.56
2018-12-15T17:54:26.953Z,87.53
2018-12-15T17:56:56.367Z,87.65
2018-12-15T17:59:26.953Z,87.09
2018-12-15T18:01:56.355Z,87.37
2018-12-15T18:04:26.109Z,87.16
2018-12-15T18:06:55.846Z,87.14
2018-12-15T18:09:27.551Z,87.17
2018-12-15T18:11:58.411Z,87.45
2018-12-15T18:14:27.972Z,87.48
2018-12-15T18:16:57.483Z,87.50
2018-12-15T18:19:27.760Z,87.57
2018-12-15T18:21:57.174Z,87.57
2018-12-15T18:24:26.785Z,87.53
2018-12-15T18:26:56.088Z,87.51
2018-12-15T18:29:25.666Z,87.18
2018-12-15T18:31:54.943Z,87.33
2018-12-15T18:34:25.089Z,87.49
2018-12-15T18:36:54.649Z,87.44
2018-12-15T18:39:23.906Z,87.36
2018-12-15T18:41:53.137Z,87.30
2018-12-15T18:44:22.467Z,87.41
2018-12-15T18:46:51.792Z,87.33
2018-12-15T18:49:21.056Z,87.37
2018-12-15T18:51:50.377Z,87.27
2018-12-15T18:54:19.649Z,87.53
2018-12-15T18:56:49.118Z,87.25
2018-12-15T18:59:19.322Z,87.15
2018-12-15T19:01:49.200Z,87.64
2018-12-15T19:04:19.129Z,87.16
2018-12-15T19:06:48.394Z,87.37
2018-12-15T19:09:17.693Z,87.51
2018-12-15T19:11:47.541Z,87.57
2018-12-15T19:14:16.803Z,87.26
2018-12-15T19:16:46.173Z,87.14
2018-12-15T19:19:15.475Z,87.45
2018-12-15T19:21:44.781Z,87.44
2018-12-15T19:24:15.155Z,87.18
2018-12-15T19:26:44.401Z,87.39
2018-12-15T19:29:13.709Z,87.01
2018-12-15T19:34:33.360Z,87.58
2018-12-15T19:37:02.636Z,87.37
2018-12-15T19:39:32.846Z,87.42
2018-12-15T19:42:02.747Z,87.35
2018-12-15T19:44:32.134Z,87.51
2018-12-15T19:47:02.075Z,87.57
2018-12-15T19:49:31.767Z,87.14
2018-12-15T19:52:04.552Z,87.47
2018-12-15T19:54:33.863Z,87.24
2018-12-15T19:57:03.802Z,87.28
2018-12-15T19:59:36.361Z,87.16
2018-12-15T20:02:09.642Z,87.40
2018-12-15T20:04:43.733Z,87.36
2018-12-15T20:10:11.660Z,87.53
2018-12-15T20:12:41.668Z,87.62
2018-12-15T20:15:12.013Z,87.27
2018-12-15T20:17:41.960Z,87.19
2018-12-15T20:20:12.004Z,87.55
2018-12-15T20:22:42.078Z,87.41
2018-12-15T20:28:23.732Z,87.46
2018-12-15T20:30:53.038Z,87.27
2018-12-15T20:33:23.003Z,87.57
2018-12-15T20:35:52.824Z,87.44
2018-12-15T20:38:23.515Z,87.41
2018-12-15T20:40:53.217Z,87.47
2018-12-15T20:43:23.471Z,87.63
2018-12-15T20:45:55.484Z,87.24
2018-12-15T20:48:28.041Z,87.20
2018-12-15T20:51:01.829Z,87.61
2018-12-15T20:53:33.263Z,87.61
2018-12-15T20:56:03.800Z,87.52
2018-12-15T20:58:34.138Z,87.29
2018-12-15T21:01:04.843Z,87.64
2018-12-15T21:03:37.917Z,87.51
2018-12-15T21:06:07.674Z,87.47
2018-12-15T21:08:38.544Z,87.62
2018-12-15T21:11:14.098Z,87.49
2018-12-15T21:13:44.416Z,87.12
2018-12-15T21:16:13.905Z,87.36
2018-12-15T21:18:43.300Z,87.23
2018-12-15T21:21:12.623Z,87.54
2018-12-15T21:23:43.976Z,87.42
2018-12-15T21:26:13.266Z,87.64
2018-12-15T21:28:43.539Z,87.66
2018-12-15T21:31:12.775Z,87.25
2018-12-15T21:33:42.307Z,87.67
2018-12-15T21:36:11.829Z,87.38
2018-12-15T21:38:41.208Z,87.52
2018-12-15T21:41:11.063Z,87.64
2018-12-15T21:43:40.402Z,87.35
2018-12-15T21:46:09.680Z,87.65
2018-12-15T21:48:38.908Z,87.46
2018-12-15T21:51:08.150Z,87.45
2018-12-15T21:53:38.687Z,87.39
2018-12-15T21:56:09.112Z,87.25
2018-12-15T21:58:38.383Z,87.72
2018-12-15T22:01:07.632Z,87.72
2018-12-15T22:03:36.909Z,87.69
2018-12-15T22:06:06.219Z,87.71
2018-12-15T22:08:36.128Z,87.60
2018-12-15T22:11:05.451Z,87.56
2018-12-15T22:13:34.886Z,87.54
2018-12-15T22:16:04.134Z,87.28
2018-12-15T22:18:33.400Z,87.58
2018-12-15T22:21:02.658Z,87.58
2018-12-15T22:23:31.938Z,87.73
2018-12-15T22:26:01.172Z,87.57
2018-12-15T22:28:32.366Z,87.34
2018-12-15T22:31:01.645Z,87.64
2018-12-15T22:33:30.999Z,87.35
2018-12-15T22:36:00.524Z,87.70
2018-12-15T22:38:29.768Z,87.30
2018-12-15T22:41:00.422Z,87.62
2018-12-15T22:43:29.890Z,87.66
2018-12-15T22:46:00.689Z,87.76
2018-12-15T22:48:30.188Z,87.71
2018-12-15T22:51:00.472Z,87.66
2018-12-15T22:53:30.252Z,87.29
2018-12-15T22:55:59.802Z,87.30
2018-12-15T22:58:29.341Z,87.50
2018-12-15T23:01:08.060Z,87.37
2018-12-15T23:03:38.028Z,87.34
2018-12-15T23:06:07.330Z,87.75
2018-12-15T23:08:36.698Z,87.32
2018-12-15T23:11:06.398Z,87.33
2018-12-15T23:13:35.673Z,87.49
2018-12-15T23:16:05.027Z,87.66
2018-12-15T23:18:34.345Z,87.84
2018-12-15T23:21:04.685Z,87.33
2018-12-15T23:23:33.992Z,87.63
2018-12-15T23:26:03.284Z,87.81
2018-12-15T23:28:32.553Z,87.58
2018-12-15T23:31:01.986Z,87.83
2018-12-15T23:33:31.376Z,87.35
2018-12-15T23:36:00.598Z,87.58
2018-12-15T23:38:30.076Z,87.38
2018-12-15T23:40:59.306Z,87.85
2018-12-15T23:43:28.550Z,87.60
2018-12-15T23:45:57.946Z,87.82
2018-12-15T23:48:27.267Z,87.69
2018-12-15T23:50:56.597Z,87.68
2018-12-15T23:53:25.971Z,87.37
2018-12-15T23:55:55.258Z,87.63
2018-12-15T23:58:24.536Z,87.40
